createdAt,value
2022-10-02T00:00:21.860Z,0.00
2022-10-02T00:00:52.380Z,0.00
2022-10-02T00:01:23.038Z,0.00
2022-10-02T00:01:53.685Z,0.00
2022-10-02T00:02:24.254Z,0.00
2022-10-02T00:02:54.821Z,0.00
2022-10-02T00:03:25.374Z,0.00
2022-10-02T00:03:55.945Z,0.00
2022-10-02T00:04:26.545Z,0.00
2022-10-02T00:04:57.110Z,0.00
2022-10-02T00:05:27.703Z,0.00
2022-10-02T00:05:58.320Z,0.00
2022-10-02T00:06:28.931Z,0.00
2022-10-02T00:06:59.498Z,0.00
2022-10-02T00:07:30.076Z,0.00
2022-10-02T00:08:00.609Z,0.00
2022-10-02T00:08:31.162Z,0.00
2022-10-02T00:09:01.724Z,0.00
2022-10-02T00:09:32.281Z,0.00
2022-10-02T00:10:02.832Z,0.00
2022-10-02T00:10:33.353Z,0.00
2022-10-02T00:11:03.921Z,0.00
2022-10-02T00:11:34.494Z,0.00
2022-10-02T00:12:05.080Z,0.00
2022-10-02T00:12:35.654Z,0.00
2022-10-02T00:13:06.194Z,0.00
2022-10-02T00:13:36.759Z,0.00
2022-10-02T00:14:07.336Z,0.00
2022-10-02T00:14:37.890Z,0.00
2022-10-02T00:15:08.456Z,0.00
2022-10-02T00:15:39.028Z,0.00
2022-10-02T00:16:09.648Z,0.00
2022-10-02T00:16:40.691Z,0.00
2022-10-02T00:17:10.888Z,0.00
2022-10-02T00:17:41.430Z,0.00
2022-10-02T00:18:11.979Z,0.00
2022-10-02T00:18:42.551Z,0.00
2022-10-02T00:19:13.097Z,0.00
2022-10-02T00:19:43.664Z,0.00
2022-10-02T00:20:14.254Z,0.00
2022-10-02T00:20:44.891Z,0.00
2022-10-02T00:21:15.423Z,0.00
2022-10-02T00:21:45.978Z,0.00
2022-10-02T00:22:16.534Z,0.00
2022-10-02T00:22:47.086Z,0.00
2022-10-02T00:23:17.644Z,0.00
2022-10-02T00:23:48.208Z,0.00
2022-10-02T00:24:18.766Z,0.00
2022-10-02T00:24:49.318Z,0.00
2022-10-02T00:25:19.842Z,0.00
2022-10-02T00:25:50.408Z,0.00
2022-10-02T00:26:20.963Z,0.00
2022-10-02T00:26:51.537Z,0.00
2022-10-02T00:27:22.126Z,0.00
2022-10-02T00:27:52.791Z,0.00
2022-10-02T00:28:23.406Z,0.00
2022-10-02T00:28:53.974Z,0.00
2022-10-02T00:29:24.561Z,0.00
2022-10-02T00:29:55.093Z,0.00
2022-10-02T00:30:25.625Z,0.00
2022-10-02T00:30:56.167Z,0.00
2022-10-02T00:31:26.855Z,0.00
2022-10-02T00:31:57.587Z,0.00
2022-10-02T00:32:28.166Z,0.00
2022-10-02T00:32:58.729Z,0.00
2022-10-02T00:33:29.288Z,0.00
2022-10-02T00:33:59.834Z,0.00
2022-10-02T00:34:30.375Z,0.00
2022-10-02T00:35:00.938Z,0.00
2022-10-02T00:35:31.516Z,0.00
2022-10-02T00:36:02.075Z,0.00
2022-10-02T00:36:32.836Z,0.00
2022-10-02T00:37:03.468Z,0.00
2022-10-02T00:37:34.015Z,0.00
2022-10-02T00:38:04.579Z,0.00
2022-10-02T00:38:35.152Z,0.00
2022-10-02T00:39:05.715Z,0.00
2022-10-02T00:39:36.252Z,0.00
2022-10-02T00:40:06.823Z,0.00
2022-10-02T00:40:37.350Z,0.00
2022-10-02T00:41:07.918Z,0.00
2022-10-02T00:41:38.474Z,0.00
2022-10-02T00:42:09.045Z,0.00
2022-10-02T00:42:39.586Z,0.00
2022-10-02T00:43:10.154Z,0.00
2022-10-02T00:43:40.682Z,0.00
2022-10-02T00:44:11.251Z,0.00
2022-10-02T00:44:41.916Z,0.00
2022-10-02T00:45:12.551Z,0.00
2022-10-02T00:45:43.196Z,0.00
2022-10-02T00:46:13.823Z,0.00
2022-10-02T00:46:44.391Z,0.00
2022-10-02T00:47:14.942Z,0.00
2022-10-02T00:47:45.501Z,0.00
2022-10-02T00:48:16.101Z,0.00
2022-10-02T00:48:46.635Z,0.00
2022-10-02T00:49:17.182Z,0.00
2022-10-02T00:49:47.720Z,0.00
2022-10-02T00:50:18.264Z,0.00
2022-10-02T00:50:48.796Z,0.00
2022-10-02T00:51:19.407Z,0.00
2022-10-02T00:51:50.008Z,0.00
2022-10-02T00:52:20.584Z,0.00
2022-10-02T00:52:51.119Z,0.00
2022-10-02T00:53:21.693Z,0.00
2022-10-02T00:53:52.222Z,0.00
2022-10-02T00:54:22.763Z,0.00
2022-10-02T00:54:53.344Z,0.00
2022-10-02T00:55:23.898Z,0.00
2022-10-02T00:55:54.467Z,0.00
2022-10-02T00:56:24.994Z,0.00
2022-10-02T00:56:55.568Z,0.00
2022-10-02T00:57:26.104Z,0.00
2022-10-02T00:57:56.706Z,0.00
2022-10-02T00:58:27.273Z,0.00
2022-10-02T00:58:57.795Z,0.00
2022-10-02T00:59:28.368Z,0.00
2022-10-02T00:59:58.918Z,0.00
2022-10-02T01:00:29.460Z,0.00
2022-10-02T01:01:00.093Z,0.00
2022-10-02T01:01:30.716Z,0.00
2022-10-02T01:02:01.342Z,0.00
2022-10-02T01:02:32.099Z,0.00
2022-10-02T01:03:02.685Z,0.00
2022-10-02T01:03:33.207Z,0.00
2022-10-02T01:04:03.745Z,0.00
2022-10-02T01:04:34.294Z,0.00
2022-10-02T01:05:04.928Z,0.00
2022-10-02T01:05:35.486Z,0.00
2022-10-02T01:06:06.046Z,0.00
2022-10-02T01:06:36.932Z,0.00
2022-10-02T01:07:07.140Z,0.00
2022-10-02T01:07:37.708Z,0.00
2022-10-02T01:08:08.275Z,0.00
2022-10-02T01:08:38.814Z,0.00
2022-10-02T01:09:09.349Z,0.00
2022-10-02T01:09:39.921Z,0.00
2022-10-02T01:10:10.472Z,0.00
2022-10-02T01:10:41.042Z,0.00
2022-10-02T01:11:11.616Z,0.00
2022-10-02T01:11:42.150Z,0.00
2022-10-02T01:12:12.698Z,0.00
2022-10-02T01:12:43.251Z,0.00
2022-10-02T01:13:13.821Z,0.00
2022-10-02T01:13:44.377Z,0.00
2022-10-02T01:14:14.936Z,0.00
2022-10-02T01:14:45.461Z,0.00
2022-10-02T01:15:16.039Z,0.00
2022-10-02T01:15:46.602Z,0.00
2022-10-02T01:16:17.214Z,0.00
2022-10-02T01:16:47.828Z,0.00
2022-10-02T01:17:18.381Z,0.00
2022-10-02T01:17:49.012Z,0.00
2022-10-02T01:18:19.574Z,0.00
2022-10-02T01:18:50.134Z,0.00
2022-10-02T01:19:20.675Z,0.00
2022-10-02T01:19:51.227Z,0.00
2022-10-02T01:20:21.769Z,0.00
2022-10-02T01:20:52.317Z,0.00
2022-10-02T01:21:22.859Z,0.00
2022-10-02T01:21:53.416Z,0.00
2022-10-02T01:22:23.986Z,0.00
2022-10-02T01:22:54.542Z,0.00
2022-10-02T01:23:25.081Z,0.00
2022-10-02T01:23:55.655Z,0.00
2022-10-02T01:24:26.702Z,0.00
2022-10-02T01:24:57.289Z,0.00
2022-10-02T01:25:27.820Z,0.00
2022-10-02T01:25:58.418Z,0.00
2022-10-02T01:26:28.982Z,0.00
2022-10-02T01:26:59.560Z,0.00
2022-10-02T01:27:30.141Z,0.00
2022-10-02T01:28:00.718Z,0.00
2022-10-02T01:28:31.356Z,0.00
2022-10-02T01:29:01.913Z,0.00
2022-10-02T01:29:32.489Z,0.00
2022-10-02T01:30:03.097Z,0.00
2022-10-02T01:30:33.696Z,0.00
2022-10-02T01:31:04.263Z,0.00
2022-10-02T01:31:34.904Z,0.00
2022-10-02T01:32:05.493Z,0.00
2022-10-02T01:32:36.076Z,0.00
2022-10-02T01:33:06.694Z,0.00
2022-10-02T01:33:37.280Z,0.00
2022-10-02T01:34:07.849Z,0.00
2022-10-02T01:34:38.413Z,0.00
2022-10-02T01:35:08.948Z,0.00
2022-10-02T01:35:39.560Z,0.00
2022-10-02T01:36:10.142Z,0.00
2022-10-02T01:36:40.739Z,0.00
2022-10-02T01:37:11.278Z,0.00
2022-10-02T01:37:41.874Z,0.00
2022-10-02T01:38:12.461Z,0.00
2022-10-02T01:38:42.997Z,0.00
2022-10-02T01:39:13.552Z,0.00
2022-10-02T01:39:44.131Z,0.00
2022-10-02T01:40:14.651Z,0.00
2022-10-02T01:40:45.216Z,0.00
2022-10-02T01:41:15.759Z,0.00
2022-10-02T01:41:46.293Z,0.00
2022-10-02T01:42:16.879Z,0.00
2022-10-02T01:42:47.417Z,0.00
2022-10-02T01:43:17.961Z,0.00
2022-10-02T01:43:48.543Z,0.00
2022-10-02T01:44:19.077Z,0.00
2022-10-02T01:44:49.610Z,0.00
2022-10-02T01:45:20.217Z,0.00
2022-10-02T01:45:50.886Z,0.00
2022-10-02T01:46:21.513Z,0.00
2022-10-02T01:46:52.063Z,0.00
2022-10-02T01:47:22.622Z,0.00
2022-10-02T01:47:53.208Z,0.00
2022-10-02T01:48:23.827Z,0.00
2022-10-02T01:48:54.358Z,0.00
2022-10-02T01:49:24.933Z,0.00
2022-10-02T01:49:55.482Z,0.00
2022-10-02T01:50:26.043Z,0.00
2022-10-02T01:50:56.576Z,0.00
2022-10-02T01:51:27.110Z,0.00
2022-10-02T01:51:57.687Z,0.00
2022-10-02T01:52:28.267Z,0.00
2022-10-02T01:52:58.818Z,0.00
2022-10-02T01:53:29.401Z,0.00
2022-10-02T01:53:59.934Z,0.00
2022-10-02T01:54:30.503Z,0.00
2022-10-02T01:55:01.061Z,0.00
2022-10-02T01:55:31.645Z,0.00
2022-10-02T01:56:02.225Z,0.00
2022-10-02T01:56:32.800Z,0.00
2022-10-02T01:57:03.378Z,0.00
2022-10-02T01:57:33.903Z,0.00
2022-10-02T01:58:04.483Z,0.00
2022-10-02T01:58:35.063Z,0.00
2022-10-02T01:59:05.653Z,0.00
2022-10-02T01:59:36.216Z,0.00
2022-10-02T02:00:06.751Z,0.00
2022-10-02T02:00:37.281Z,0.00
2022-10-02T02:01:07.934Z,0.00
2022-10-02T02:01:38.508Z,0.00
2022-10-02T02:02:09.148Z,0.00
2022-10-02T02:02:39.817Z,0.00
2022-10-02T02:03:10.407Z,0.00
2022-10-02T02:03:41.001Z,0.00
2022-10-02T02:04:11.586Z,0.00
2022-10-02T02:04:42.119Z,0.00
2022-10-02T02:05:12.700Z,0.00
2022-10-02T02:05:43.284Z,0.00
2022-10-02T02:06:13.849Z,0.00
2022-10-02T02:06:44.414Z,0.00
2022-10-02T02:07:14.955Z,0.00
2022-10-02T02:07:45.541Z,0.00
2022-10-02T02:08:16.075Z,0.00
2022-10-02T02:08:46.597Z,0.00
2022-10-02T02:09:17.185Z,0.00
2022-10-02T02:09:47.782Z,0.00
2022-10-02T02:10:18.344Z,0.00
2022-10-02T02:10:48.912Z,0.00
2022-10-02T02:11:19.483Z,0.00
2022-10-02T02:11:50.045Z,0.00
2022-10-02T02:12:20.579Z,0.00
2022-10-02T02:12:51.107Z,0.00
2022-10-02T02:13:21.654Z,0.00
2022-10-02T02:13:52.254Z,0.00
2022-10-02T02:14:22.852Z,0.00
2022-10-02T02:14:53.402Z,0.00
2022-10-02T02:15:23.976Z,0.00
2022-10-02T02:15:54.554Z,0.00
2022-10-02T02:16:25.185Z,0.00
2022-10-02T02:16:55.850Z,0.00
2022-10-02T02:17:26.418Z,0.00
2022-10-02T02:17:56.971Z,0.00
2022-10-02T02:18:27.548Z,0.00
2022-10-02T02:18:58.158Z,0.00
2022-10-02T02:19:28.714Z,0.00
2022-10-02T02:19:59.253Z,0.00
2022-10-02T02:20:29.850Z,0.00
2022-10-02T02:21:00.415Z,0.00
2022-10-02T02:21:30.996Z,0.00
2022-10-02T02:22:01.558Z,0.00
2022-10-02T02:22:32.085Z,0.00
2022-10-02T02:23:02.612Z,0.00
2022-10-02T02:23:33.185Z,0.00
2022-10-02T02:24:03.764Z,0.00
2022-10-02T02:24:34.314Z,0.00
2022-10-02T02:25:04.892Z,0.00
2022-10-02T02:25:35.462Z,0.00
2022-10-02T02:26:06.041Z,0.00
2022-10-02T02:26:36.921Z,0.00
2022-10-02T02:27:07.632Z,0.00
2022-10-02T02:27:38.174Z,0.00
2022-10-02T02:28:08.787Z,0.00
2022-10-02T02:28:39.382Z,0.00
2022-10-02T02:29:09.980Z,0.00
2022-10-02T02:29:40.524Z,0.00
2022-10-02T02:30:11.101Z,0.00
2022-10-02T02:30:41.661Z,0.00
2022-10-02T02:31:12.311Z,0.00
2022-10-02T02:31:42.934Z,0.00
2022-10-02T02:32:13.495Z,0.00
2022-10-02T02:32:44.122Z,0.00
2022-10-02T02:33:14.666Z,0.00
2022-10-02T02:33:45.188Z,0.00
2022-10-02T02:34:15.775Z,0.00
2022-10-02T02:34:46.330Z,0.00
2022-10-02T02:35:16.881Z,0.00
2022-10-02T02:35:47.457Z,0.00
2022-10-02T02:36:18.049Z,0.00
2022-10-02T02:36:48.626Z,0.00
2022-10-02T02:37:19.210Z,0.00
2022-10-02T02:37:49.766Z,0.00
2022-10-02T02:38:20.351Z,0.00
2022-10-02T02:38:50.923Z,0.00
2022-10-02T02:39:21.459Z,0.00
2022-10-02T02:39:52.051Z,0.00
2022-10-02T02:40:22.606Z,0.00
2022-10-02T02:40:53.168Z,0.00
2022-10-02T02:41:23.749Z,0.00
2022-10-02T02:41:54.290Z,0.00
2022-10-02T02:42:26.160Z,0.00
2022-10-02T02:42:55.469Z,0.00
2022-10-02T02:43:26.023Z,0.00
2022-10-02T02:43:56.550Z,0.00
2022-10-02T02:44:27.126Z,0.00
2022-10-02T02:44:57.713Z,0.00
2022-10-02T02:45:28.342Z,0.00
2022-10-02T02:45:58.975Z,0.00
2022-10-02T02:46:29.535Z,0.00
2022-10-02T02:47:00.121Z,0.00
2022-10-02T02:47:30.702Z,0.00
2022-10-02T02:48:01.229Z,0.00
2022-10-02T02:48:31.796Z,0.00
2022-10-02T02:49:02.376Z,0.00
2022-10-02T02:49:32.947Z,0.00
2022-10-02T02:50:03.526Z,0.00
2022-10-02T02:50:34.105Z,0.00
2022-10-02T02:51:04.683Z,0.00
2022-10-02T02:51:35.247Z,0.00
2022-10-02T02:52:05.810Z,0.00
2022-10-02T02:52:36.377Z,0.00
2022-10-02T02:53:06.917Z,0.00
2022-10-02T02:53:37.504Z,0.00
2022-10-02T02:54:08.053Z,0.00
2022-10-02T02:54:38.612Z,0.00
2022-10-02T02:55:09.185Z,0.00
2022-10-02T02:55:44.794Z,0.00
2022-10-02T02:56:10.504Z,0.00
2022-10-02T02:56:41.075Z,0.00
2022-10-02T02:57:11.600Z,0.00
2022-10-02T02:57:42.175Z,0.00
2022-10-02T02:58:12.763Z,0.00
2022-10-02T02:58:43.299Z,0.00
2022-10-02T02:59:13.900Z,0.00
2022-10-02T02:59:44.441Z,0.00
2022-10-02T03:00:15.025Z,0.00
2022-10-02T03:00:45.596Z,0.00
2022-10-02T03:01:16.230Z,0.00
2022-10-02T03:01:46.841Z,0.00
2022-10-02T03:02:17.476Z,0.00
2022-10-02T03:02:48.091Z,0.00
2022-10-02T03:03:18.653Z,0.00
2022-10-02T03:03:49.185Z,0.00
2022-10-02T03:04:19.728Z,0.00
2022-10-02T03:04:50.309Z,0.00
2022-10-02T03:05:20.869Z,0.00
2022-10-02T03:05:51.439Z,0.00
2022-10-02T03:06:22.011Z,0.00
2022-10-02T03:06:52.546Z,0.00
2022-10-02T03:07:23.133Z,0.00
2022-10-02T03:07:53.683Z,0.00
2022-10-02T03:08:24.212Z,0.00
2022-10-02T03:08:54.775Z,0.00
2022-10-02T03:09:25.340Z,0.00
2022-10-02T03:09:55.921Z,0.00
2022-10-02T03:10:26.517Z,0.00
2022-10-02T03:10:57.084Z,0.00
2022-10-02T03:11:27.637Z,0.00
2022-10-02T03:11:58.162Z,0.00
2022-10-02T03:12:28.728Z,0.00
2022-10-02T03:12:59.309Z,0.00
2022-10-02T03:13:29.877Z,0.00
2022-10-02T03:14:00.418Z,0.00
2022-10-02T03:14:30.954Z,0.00
2022-10-02T03:15:01.530Z,0.00
2022-10-02T03:15:32.105Z,0.00
2022-10-02T03:16:02.729Z,0.00
2022-10-02T03:16:33.694Z,0.00
2022-10-02T03:17:03.958Z,0.00
2022-10-02T03:17:34.546Z,0.00
2022-10-02T03:18:05.109Z,0.00
2022-10-02T03:18:35.671Z,0.00
2022-10-02T03:19:06.247Z,0.00
2022-10-02T03:19:36.809Z,0.00
2022-10-02T03:20:07.466Z,0.00
2022-10-02T03:20:37.991Z,0.00
2022-10-02T03:21:08.569Z,0.00
2022-10-02T03:21:39.107Z,0.00
2022-10-02T03:22:09.629Z,0.00
2022-10-02T03:22:40.185Z,0.00
2022-10-02T03:23:10.755Z,0.00
2022-10-02T03:23:41.313Z,0.00
2022-10-02T03:24:11.842Z,0.00
2022-10-02T03:24:42.367Z,0.00
2022-10-02T03:25:12.926Z,0.00
2022-10-02T03:25:43.511Z,0.00
2022-10-02T03:26:14.079Z,0.00
2022-10-02T03:26:44.636Z,0.00
2022-10-02T03:27:15.180Z,0.00
2022-10-02T03:27:45.818Z,0.00
2022-10-02T03:28:27.173Z,0.00
2022-10-02T03:28:56.480Z,0.00
2022-10-02T03:29:17.929Z,0.00
2022-10-02T03:29:48.471Z,0.00
2022-10-02T03:30:18.992Z,0.00
2022-10-02T03:30:49.550Z,0.00
2022-10-02T03:31:20.221Z,0.00
2022-10-02T03:31:50.833Z,0.00
2022-10-02T03:32:21.383Z,0.00
2022-10-02T03:32:51.912Z,0.00
2022-10-02T03:33:22.485Z,0.00
2022-10-02T03:33:53.039Z,0.00
2022-10-02T03:34:23.603Z,0.00
2022-10-02T03:34:54.165Z,0.00
2022-10-02T03:35:24.751Z,0.00
2022-10-02T03:35:55.274Z,0.00
2022-10-02T03:36:25.916Z,0.00
2022-10-02T03:36:56.472Z,0.00
2022-10-02T03:37:27.037Z,0.00
2022-10-02T03:37:57.597Z,0.00
2022-10-02T03:38:28.159Z,0.00
2022-10-02T03:39:23.074Z,0.00
2022-10-02T03:39:29.499Z,0.00
2022-10-02T03:40:00.061Z,0.00
2022-10-02T03:40:30.640Z,0.00
2022-10-02T03:41:01.177Z,0.00
2022-10-02T03:41:31.786Z,0.00
2022-10-02T03:42:02.353Z,0.00
2022-10-02T03:42:32.898Z,0.00
2022-10-02T03:43:03.454Z,0.00
2022-10-02T03:43:34.043Z,0.00
2022-10-02T03:44:04.593Z,0.00
2022-10-02T03:44:35.151Z,0.00
2022-10-02T03:45:05.725Z,0.00
2022-10-02T03:45:52.024Z,0.00
2022-10-02T03:46:07.099Z,0.00
2022-10-02T03:46:38.111Z,0.00
2022-10-02T03:47:08.398Z,0.00
2022-10-02T03:47:38.968Z,0.00
2022-10-02T03:48:09.527Z,0.00
2022-10-02T03:48:40.054Z,0.00
2022-10-02T03:49:10.582Z,0.00
2022-10-02T03:49:41.175Z,0.00
2022-10-02T03:50:11.742Z,0.00
2022-10-02T03:50:42.335Z,0.00
2022-10-02T03:51:12.877Z,0.00
2022-10-02T03:51:43.435Z,0.00
2022-10-02T03:52:14.006Z,0.00
2022-10-02T03:52:44.563Z,0.00
2022-10-02T03:53:15.125Z,0.00
2022-10-02T03:53:45.659Z,0.00
2022-10-02T03:54:16.226Z,0.00
2022-10-02T03:54:46.854Z,0.00
2022-10-02T03:55:17.403Z,0.00
2022-10-02T03:55:47.928Z,0.00
2022-10-02T03:56:18.491Z,0.00
2022-10-02T03:56:49.028Z,0.00
2022-10-02T03:57:19.607Z,0.00
2022-10-02T03:57:50.175Z,0.00
2022-10-02T03:58:20.739Z,0.00
2022-10-02T03:58:51.294Z,0.00
2022-10-02T03:59:21.903Z,0.00
2022-10-02T03:59:52.521Z,0.00
2022-10-02T04:00:23.108Z,0.00
2022-10-02T04:00:53.684Z,0.00
2022-10-02T04:01:24.303Z,0.00
2022-10-02T04:01:55.009Z,0.00
2022-10-02T04:02:25.549Z,0.00
2022-10-02T04:02:56.098Z,0.00
2022-10-02T04:03:26.739Z,0.00
2022-10-02T04:03:57.347Z,0.00
2022-10-02T04:04:27.918Z,0.00
2022-10-02T04:04:58.497Z,0.00
2022-10-02T04:05:29.068Z,0.00
2022-10-02T04:05:59.671Z,0.00
2022-10-02T04:06:30.216Z,0.00
2022-10-02T04:07:00.774Z,0.00
2022-10-02T04:07:31.312Z,0.00
2022-10-02T04:08:01.863Z,0.00
2022-10-02T04:08:32.443Z,0.00
2022-10-02T04:09:03.020Z,0.00
2022-10-02T04:09:33.588Z,0.00
2022-10-02T04:10:04.161Z,0.00
2022-10-02T04:10:34.744Z,0.00
2022-10-02T04:11:05.324Z,0.00
2022-10-02T04:11:35.883Z,0.00
2022-10-02T04:12:06.422Z,0.00
2022-10-02T04:12:36.992Z,0.00
2022-10-02T04:13:07.518Z,0.00
2022-10-02T04:13:38.067Z,0.00
2022-10-02T04:14:08.646Z,0.00
2022-10-02T04:14:39.237Z,0.00
2022-10-02T04:15:09.800Z,0.00
2022-10-02T04:15:40.339Z,0.00
2022-10-02T04:16:11.031Z,0.00
2022-10-02T04:16:41.720Z,0.00
2022-10-02T04:17:12.313Z,0.00
2022-10-02T04:17:42.865Z,0.00
2022-10-02T04:18:13.420Z,0.00
2022-10-02T04:18:44.015Z,0.00
2022-10-02T04:19:14.611Z,0.00
2022-10-02T04:19:45.184Z,0.00
2022-10-02T04:20:15.761Z,0.00
2022-10-02T04:20:46.340Z,0.00
2022-10-02T04:21:16.912Z,0.00
2022-10-02T04:21:47.443Z,0.00
2022-10-02T04:22:18.027Z,0.00
2022-10-02T04:22:48.582Z,0.00
2022-10-02T04:23:19.127Z,0.00
2022-10-02T04:23:49.719Z,0.00
2022-10-02T04:24:20.261Z,0.00
2022-10-02T04:24:50.840Z,0.00
2022-10-02T04:25:21.368Z,0.00
2022-10-02T04:25:51.932Z,0.00
2022-10-02T04:26:22.499Z,0.00
2022-10-02T04:26:53.030Z,0.00
2022-10-02T04:27:23.589Z,0.00
2022-10-02T04:27:54.206Z,0.00
2022-10-02T04:28:24.832Z,0.00
2022-10-02T04:28:55.436Z,0.00
2022-10-02T04:29:25.967Z,0.00
2022-10-02T04:29:56.558Z,0.00
2022-10-02T04:30:27.130Z,0.00
2022-10-02T04:30:57.677Z,0.00
2022-10-02T04:31:28.339Z,0.00
2022-10-02T04:31:59.004Z,0.00
2022-10-02T04:32:29.609Z,0.00
2022-10-02T04:33:00.189Z,0.00
2022-10-02T04:33:33.251Z,0.00
2022-10-02T04:34:01.612Z,0.00
2022-10-02T04:34:32.201Z,0.00
2022-10-02T04:35:02.774Z,0.00
2022-10-02T04:35:33.343Z,0.00
2022-10-02T04:36:03.885Z,0.00
2022-10-02T04:36:34.876Z,0.00
2022-10-02T04:37:05.106Z,0.00
2022-10-02T04:37:35.689Z,0.00
2022-10-02T04:38:06.244Z,0.00
2022-10-02T04:38:36.809Z,0.00
2022-10-02T04:39:07.378Z,0.00
2022-10-02T04:39:37.973Z,0.00
2022-10-02T04:40:08.544Z,0.00
2022-10-02T04:40:39.119Z,0.00
2022-10-02T04:41:09.673Z,0.00
2022-10-02T04:41:40.227Z,0.00
2022-10-02T04:42:10.792Z,0.00
2022-10-02T04:42:41.384Z,0.00
2022-10-02T04:43:11.959Z,0.00
2022-10-02T04:43:42.528Z,0.00
2022-10-02T04:44:13.080Z,0.00
2022-10-02T04:44:43.655Z,0.00
2022-10-02T04:45:14.223Z,0.00
2022-10-02T04:45:44.819Z,0.00
2022-10-02T04:46:15.455Z,0.00
2022-10-02T04:46:46.045Z,0.00
2022-10-02T04:47:16.611Z,0.00
2022-10-02T04:47:47.187Z,0.00
2022-10-02T04:48:17.753Z,0.00
2022-10-02T04:48:48.307Z,0.00
2022-10-02T04:49:18.888Z,0.00
2022-10-02T04:49:49.468Z,0.00
2022-10-02T04:50:20.072Z,0.00
2022-10-02T04:50:50.632Z,0.00
2022-10-02T04:51:21.182Z,0.00
2022-10-02T04:51:51.749Z,0.00
2022-10-02T04:52:22.287Z,0.00
2022-10-02T04:52:52.816Z,0.00
2022-10-02T04:53:23.369Z,0.00
2022-10-02T04:53:53.916Z,0.00
2022-10-02T04:54:24.486Z,0.00
2022-10-02T04:54:55.049Z,0.00
2022-10-02T04:55:25.639Z,0.00
2022-10-02T04:55:56.197Z,0.00
2022-10-02T04:56:26.754Z,0.00
2022-10-02T04:56:57.304Z,0.00
2022-10-02T04:57:27.880Z,0.00
2022-10-02T04:57:58.447Z,0.00
2022-10-02T04:58:28.970Z,0.00
2022-10-02T04:58:59.501Z,0.00
2022-10-02T04:59:30.020Z,1.00
2022-10-02T05:00:01.071Z,0.00
2022-10-02T05:00:31.676Z,0.00
2022-10-02T05:01:02.290Z,0.00
2022-10-02T05:01:32.868Z,0.00
2022-10-02T05:02:03.521Z,0.00
2022-10-02T05:02:34.087Z,0.00
2022-10-02T05:03:04.666Z,0.00
2022-10-02T05:03:35.175Z,1.00
2022-10-02T05:04:06.167Z,1.00
2022-10-02T05:04:36.693Z,1.00
2022-10-02T05:05:07.212Z,1.00
2022-10-02T05:05:38.227Z,1.00
2022-10-02T05:06:08.746Z,1.00
2022-10-02T05:06:39.793Z,1.00
2022-10-02T05:07:10.841Z,1.00
2022-10-02T05:07:41.848Z,1.00
2022-10-02T05:08:12.843Z,2.00
2022-10-02T05:08:43.363Z,2.00
2022-10-02T05:09:13.915Z,2.00
2022-10-02T05:09:44.521Z,0.00
2022-10-02T05:10:15.138Z,0.00
2022-10-02T05:10:45.648Z,2.00
2022-10-02T05:11:16.169Z,2.00
2022-10-02T05:11:47.229Z,2.00
2022-10-02T05:12:17.731Z,2.00
2022-10-02T05:12:48.838Z,2.00
2022-10-02T05:13:19.319Z,2.00
2022-10-02T05:13:49.867Z,3.00
2022-10-02T05:14:20.390Z,3.00
2022-10-02T05:14:50.905Z,1.00
2022-10-02T05:15:21.451Z,3.00
2022-10-02T05:15:52.571Z,3.00
2022-10-02T05:16:23.111Z,3.00
2022-10-02T05:16:53.628Z,5.00
2022-10-02T05:17:24.156Z,4.00
2022-10-02T05:17:55.171Z,4.00
2022-10-02T05:18:26.196Z,4.00
2022-10-02T05:18:57.214Z,4.00
2022-10-02T05:19:27.763Z,6.00
2022-10-02T05:19:58.262Z,6.00
2022-10-02T05:20:29.250Z,6.00
2022-10-02T05:21:00.292Z,8.00
2022-10-02T05:21:31.319Z,7.00
2022-10-02T05:22:02.350Z,8.00
2022-10-02T05:22:33.369Z,8.00
2022-10-02T05:23:03.876Z,9.00
2022-10-02T05:23:34.904Z,9.00
2022-10-02T05:24:05.922Z,9.00
2022-10-02T05:24:36.937Z,10.00
2022-10-02T05:25:07.935Z,11.00
2022-10-02T05:25:38.929Z,11.00
2022-10-02T05:26:14.247Z,12.00
2022-10-02T05:26:41.349Z,12.00
2022-10-02T05:27:11.824Z,13.00
2022-10-02T05:27:42.848Z,12.00
2022-10-02T05:28:13.918Z,12.00
2022-10-02T05:28:44.429Z,12.00
2022-10-02T05:29:15.469Z,15.00
2022-10-02T05:29:46.497Z,15.00
2022-10-02T05:30:17.508Z,17.00
2022-10-02T05:30:48.527Z,18.00
2022-10-02T05:31:19.630Z,15.00
2022-10-02T05:31:50.162Z,15.00
2022-10-02T05:32:20.731Z,17.00
2022-10-02T05:32:51.220Z,18.00
2022-10-02T05:33:22.286Z,19.00
2022-10-02T05:33:52.803Z,21.00
2022-10-02T05:34:23.816Z,19.00
2022-10-02T05:34:54.830Z,19.00
2022-10-02T05:35:25.356Z,19.00
2022-10-02T05:35:55.871Z,13.00
2022-10-02T05:36:26.907Z,10.00
2022-10-02T05:36:57.428Z,16.00
2022-10-02T05:37:28.461Z,19.00
2022-10-02T05:37:59.095Z,20.00
2022-10-02T05:38:29.563Z,18.00
2022-10-02T05:39:00.627Z,17.00
2022-10-02T05:39:31.123Z,23.00
2022-10-02T05:40:02.157Z,23.00
2022-10-02T05:40:32.690Z,29.00
2022-10-02T05:41:03.207Z,26.00
2022-10-02T05:41:34.202Z,30.00
2022-10-02T05:42:05.228Z,37.00
2022-10-02T05:42:38.183Z,33.00
2022-10-02T05:43:06.359Z,37.00
2022-10-02T05:43:37.365Z,32.00
2022-10-02T05:44:07.898Z,28.00
2022-10-02T05:44:38.942Z,29.00
2022-10-02T05:45:09.437Z,25.00
2022-10-02T05:45:40.441Z,30.00
2022-10-02T05:46:10.978Z,33.00
2022-10-02T05:46:42.019Z,36.00
2022-10-02T05:47:12.520Z,32.00
2022-10-02T05:47:43.551Z,36.00
2022-10-02T05:48:14.542Z,38.00
2022-10-02T05:48:45.541Z,46.00
2022-10-02T05:49:16.574Z,44.00
2022-10-02T05:49:47.579Z,37.00
2022-10-02T05:50:18.596Z,25.00
2022-10-02T05:50:49.630Z,36.00
2022-10-02T05:51:20.162Z,46.00
2022-10-02T05:51:50.671Z,37.00
2022-10-02T05:52:21.190Z,22.00
2022-10-02T05:52:52.195Z,15.00
2022-10-02T05:53:23.224Z,42.00
2022-10-02T05:53:54.236Z,55.00
2022-10-02T05:54:25.256Z,57.00
2022-10-02T05:54:56.395Z,62.00
2022-10-02T05:55:26.922Z,58.00
2022-10-02T05:55:57.458Z,55.00
2022-10-02T05:56:28.004Z,59.00
2022-10-02T05:56:58.993Z,60.00
2022-10-02T05:57:29.526Z,61.00
2022-10-02T05:58:00.572Z,63.00
2022-10-02T05:58:31.563Z,70.00
2022-10-02T05:59:02.562Z,69.00
2022-10-02T05:59:33.597Z,71.00
2022-10-02T06:00:04.132Z,72.00
2022-10-02T06:00:35.221Z,72.00
2022-10-02T06:01:05.798Z,75.00
2022-10-02T06:01:36.383Z,79.00
2022-10-02T06:02:06.941Z,87.00
2022-10-02T06:02:39.425Z,86.00
2022-10-02T06:03:08.028Z,81.00
2022-10-02T06:03:39.066Z,86.00
2022-10-02T06:04:09.570Z,89.00
2022-10-02T06:04:40.562Z,93.00
2022-10-02T06:05:11.594Z,95.00
2022-10-02T06:05:42.614Z,90.00
2022-10-02T06:06:13.674Z,89.00
2022-10-02T06:06:44.187Z,93.00
2022-10-02T06:07:15.205Z,94.00
2022-10-02T06:07:45.741Z,86.00
2022-10-02T06:08:16.805Z,76.00
2022-10-02T06:08:47.330Z,83.00
2022-10-02T06:09:20.276Z,87.00
2022-10-02T06:09:48.926Z,86.00
2022-10-02T06:10:19.917Z,89.00
2022-10-02T06:10:50.952Z,94.00
2022-10-02T06:11:21.965Z,95.00
2022-10-02T06:11:52.467Z,102.00
2022-10-02T06:12:23.483Z,99.00
2022-10-02T06:12:54.005Z,98.00
2022-10-02T06:13:25.016Z,95.00
2022-10-02T06:13:56.098Z,98.00
2022-10-02T06:14:26.607Z,95.00
2022-10-02T06:14:57.604Z,99.00
2022-10-02T06:15:28.607Z,106.00
2022-10-02T06:15:59.151Z,114.00
2022-10-02T06:16:30.285Z,124.00
2022-10-02T06:17:00.810Z,128.00
2022-10-02T06:17:31.503Z,132.00
2022-10-02T06:18:02.007Z,131.00
2022-10-02T06:18:32.534Z,124.00
2022-10-02T06:19:03.567Z,120.00
2022-10-02T06:19:34.597Z,123.00
2022-10-02T06:20:05.104Z,120.00
2022-10-02T06:20:36.108Z,115.00
2022-10-02T06:21:07.114Z,114.00
2022-10-02T06:21:38.146Z,114.00
2022-10-02T06:22:08.660Z,110.00
2022-10-02T06:22:39.217Z,115.00
2022-10-02T06:23:10.209Z,121.00
2022-10-02T06:23:41.203Z,119.00
2022-10-02T06:24:12.259Z,119.00
2022-10-02T06:24:43.260Z,121.00
2022-10-02T06:25:14.280Z,119.00
2022-10-02T06:25:45.326Z,126.00
2022-10-02T06:26:15.837Z,128.00
2022-10-02T06:26:46.851Z,132.00
2022-10-02T06:27:17.864Z,134.00
2022-10-02T06:27:48.916Z,134.00
2022-10-02T06:28:19.527Z,123.00
2022-10-02T06:28:50.045Z,121.00
2022-10-02T06:29:24.980Z,120.00
2022-10-02T06:29:51.788Z,119.00
2022-10-02T06:30:22.854Z,117.00
2022-10-02T06:30:53.352Z,116.00
2022-10-02T06:31:24.477Z,123.00
2022-10-02T06:31:55.133Z,123.00
2022-10-02T06:32:25.674Z,125.00
2022-10-02T06:32:56.676Z,126.00
2022-10-02T06:33:27.767Z,127.00
2022-10-02T06:33:58.299Z,132.00
2022-10-02T06:34:29.302Z,138.00
2022-10-02T06:35:00.324Z,146.00
2022-10-02T06:35:31.387Z,146.00
2022-10-02T06:36:02.395Z,153.00
2022-10-02T06:36:33.707Z,158.00
2022-10-02T06:37:04.377Z,159.00
2022-10-02T06:37:35.382Z,158.00
2022-10-02T06:38:05.911Z,156.00
2022-10-02T06:38:36.949Z,159.00
2022-10-02T06:39:07.440Z,173.00
2022-10-02T06:39:38.479Z,180.00
2022-10-02T06:40:08.989Z,191.00
2022-10-02T06:40:39.510Z,197.00
2022-10-02T06:41:10.523Z,208.00
2022-10-02T06:41:41.564Z,213.00
2022-10-02T06:42:12.557Z,214.00
2022-10-02T06:42:43.598Z,205.00
2022-10-02T06:43:14.117Z,204.00
2022-10-02T06:43:44.655Z,200.00
2022-10-02T06:44:15.672Z,190.00